Latest Weather Observations for Samuel Hill

IDQ60801

Issued at 1:32 pm EST Tuesday 27 June 2017 (issued every 30 minutes, with the page automatically refreshed every 10 minutes)

About weather observations | Map of weather stations | Latest weather observations for QLD | Other Formats
Station Details ID: 033308 Name: SAMUEL HILL AERO Lat: -22.74 Lon: 150.66 Height: 31.0 m
Data from the previous 72 hours. | See also: Recent months at Samuel Hill
Date/Time
EST
Temp
°C
App
Temp
°C
Dew
Point
°C
Rel
Hum
%
Delta-T
°C
Wind Press
QNH
hPa
Press
MSL
hPa
Rain since
9am
mm
Dir  Spd
km/h
Gust
km/h
Spd
kts
Gust
kts
27/01:30pm 24.4 22.5 15.3 57 5.5 E 19 28 10 15 1020.7 1020.6 0.0
27/01:00pm 23.8 21.7 14.8 57 5.3 ESE 19 28 10 15 1021.0 1020.9 0.0
27/12:30pm 24.7 22.6 15.1 55 5.8 E 20 32 11 17 1021.3 1021.3 0.0
27/12:00pm 24.5 22.7 16.0 59 5.2 E 20 32 11 17 1021.9 1021.9 0.0
27/11:30am 23.0 21.1 15.8 64 4.3 ESE 20 32 11 17 1022.4 1022.4 0.0
27/11:00am 23.2 22.7 16.0 64 4.3 SE 13 24 7 13 1022.5 1022.5 0.0
27/10:30am 21.9 22.5 18.5 81 2.1 SSE 13 19 7 10 1022.6 1022.6 0.0
27/10:19am 20.7 21.3 18.6 88 1.3 S 13 19 7 10 1022.6 1022.6 0.0
27/10:00am 19.4 20.7 19.2 99 0.1 SSE 11 19 6 10 1022.7 1022.7 0.0
27/09:34am 18.7 19.7 18.7 100 0.0 SSE 11 20 6 11 1022.8 1022.8 0.0
27/09:30am 18.5 19.4 18.5 100 0.0 SSE 11 20 6 11 1022.8 1022.8 0.0
27/09:00am 18.2 18.6 18.2 100 0.0 SSE 13 19 7 10 1022.7 1022.7 0.0
27/08:30am 17.4 17.0 17.2 99 0.1 SSE 15 24 8 13 1022.5 1022.5 0.0
27/08:00am 15.9 16.5 15.7 99 0.1 SSE 7 11 4 6 1022.0 1022.0 0.0
27/07:30am 13.3 13.1 13.0 98 0.2 SW 6 9 3 5 1021.6 1021.6 0.0
27/07:00am 12.4 11.9 12.1 98 0.2 S 6 9 3 5 1021.5 1021.5 0.0
27/06:30am 11.6 11.9 11.0 96 0.3 CALM 0 0 0 0 1021.3 1021.3 0.0
27/06:00am 10.8 10.9 10.0 95 0.4 CALM 0 0 0 0 1021.2 1021.1 0.0
27/05:42am 10.5 10.5 9.7 95 0.4 CALM 0 0 0 0 1021.1 1021.0 0.0
27/05:32am 10.6 10.6 9.8 95 0.4 CALM 0 0 0 0 1020.9 1020.8 0.0
27/05:30am 10.6 10.6 9.8 95 0.4 CALM 0 0 0 0 1020.9 1020.8 0.0
27/05:00am 10.8 10.9 10.0 95 0.4 CALM 0 0 0 0 1020.7 1020.6 0.0
27/04:30am 11.1 11.2 10.3 95 0.4 CALM 0 0 0 0 1020.7 1020.6 0.0
27/04:00am 11.0 11.1 10.2 95 0.4 CALM 0 0 0 0 1020.9 1020.8 0.0
27/03:30am 10.9 11.0 10.1 95 0.4 CALM 0 0 0 0 1021.0 1020.9 0.0
27/03:27am 11.0 11.1 10.2 95 0.4 CALM 0 0 0 0 1021.0 1020.9 0.0
27/03:00am 11.3 11.5 10.5 95 0.4 CALM 0 0 0 0 1021.0 1020.9 0.0
27/02:30am 11.2 11.3 10.3 94 0.5 CALM 0 0 0 0 1020.9 1020.8 0.0
27/02:00am 11.3 11.5 10.4 94 0.5 CALM 0 0 0 0 1021.0 1020.9 0.0
27/01:30am 11.2 11.3 10.1 93 0.6 CALM 0 0 0 0 1020.9 1020.8 0.0
27/01:14am 10.9 10.6 10.0 94 0.5 WNW 2 6 1 3 1020.9 1020.8 0.0
27/01:00am 12.0 11.2 11.1 94 0.5 W 6 7 3 4 1021.1 1021.0 0.0
27/12:50am 12.0 11.2 11.1 94 0.5 SW 6 7 3 4 1021.1 1021.0 0.0
27/12:30am 11.6 11.8 10.5 93 0.6 CALM 0 0 0 0 1021.2 1021.1 0.0
27/12:00am 11.5 11.7 10.4 93 0.6 CALM 0 0 0 0 1021.5 1021.5 0.0
 
Date/Time
EST
Temp
°C
App
Temp
°C
Dew
Point
°C
Rel
Hum
%
Delta-T
°C
Wind Press
QNH
hPa
Press
MSL
hPa
Rain since
9am
mm
Dir  Spd
km/h
Gust
km/h
Spd
kts
Gust
kts
26/11:30pm 11.9 12.1 10.6 92 0.7 CALM 0 0 0 0 1021.6 1021.6 0.0
26/11:00pm 11.4 11.5 10.0 91 0.7 CALM 0 0 0 0 1021.6 1021.6 0.0
26/10:30pm 12.0 12.2 10.6 91 0.7 CALM 0 0 0 0 1021.7 1021.7 0.0
26/10:00pm 12.2 12.5 10.8 91 0.7 CALM 0 0 0 0 1021.7 1021.7 0.0
26/09:30pm 12.8 13.2 11.4 91 0.7 CALM 0 0 0 0 1021.5 1021.5 0.0
26/09:00pm 12.5 12.7 10.7 89 0.9 CALM 0 0 0 0 1021.4 1021.4 0.0
26/08:30pm 13.6 13.5 12.2 91 0.8 SW 4 6 2 3 1021.5 1021.5 0.0
26/08:00pm 14.2 15.1 12.8 91 0.8 CALM 0 0 0 0 1021.2 1021.1 0.0
26/07:30pm 13.6 12.9 11.3 86 1.2 SE 6 6 3 3 1021.0 1020.9 0.0
26/07:00pm 15.1 14.6 12.8 86 1.3 S 7 7 4 4 1020.8 1020.7 0.0
26/06:30pm 15.4 15.4 12.5 83 1.6 S 4 7 2 4 1020.2 1020.1 0.0
26/06:00pm 17.2 17.2 13.5 79 2.1 ESE 6 7 3 4 1019.8 1019.7 0.0
26/05:30pm 19.1 19.3 14.1 73 2.9 ESE 6 7 3 4 1019.8 1019.7 0.0
26/05:00pm 21.0 20.8 14.6 67 3.7 ESE 9 11 5 6 1019.7 1019.6 0.0
26/04:30pm 22.0 21.4 14.6 63 4.4 ESE 11 15 6 8 1019.5 1019.4 0.0
26/04:00pm 22.6 21.9 14.4 60 4.8 E 11 15 6 8 1019.4 1019.3 0.0
26/03:30pm 23.4 22.1 13.6 54 5.7 E 13 19 7 10 1019.2 1019.1 0.0
26/03:00pm 23.6 22.3 13.8 54 5.7 ESE 13 19 7 10 1019.0 1018.9 0.0
26/02:30pm 23.9 23.3 13.4 51 6.1 ESE 9 17 5 9 1019.0 1018.9 0.0
26/02:00pm 24.1 23.5 14.5 55 5.7 SE 11 17 6 9 1019.2 1019.1 0.0
26/01:30pm 24.2 23.7 13.7 52 6.1 SE 9 24 5 13 1019.3 1019.2 0.0
26/01:00pm 23.8 23.2 13.6 52 5.9 ESE 9 17 5 9 1019.5 1019.4 0.0
26/12:30pm 24.3 23.6 13.2 50 6.4 ENE 9 15 5 8 1019.7 1019.6 0.0
26/12:00pm 24.4 23.7 13.3 50 6.4 NE 9 19 5 10 1019.9 1019.8 0.0
26/11:30am 24.0 23.3 14.4 55 5.7 ESE 11 22 6 12 1020.5 1020.4 0.0
26/11:00am 22.4 22.4 15.3 64 4.2 SE 9 13 5 7 1021.0 1020.9 0.0
26/10:30am 21.4 21.3 15.9 71 3.3 S 11 15 6 8 1021.0 1020.9 0.0
26/10:00am 21.4 22.5 16.6 74 2.9 S 6 13 3 7 1020.9 1020.8 0.0
26/09:30am 19.9 20.4 16.5 81 2.0 SSE 9 11 5 6 1020.9 1020.8 0.0
26/09:00am 18.0 19.5 15.8 87 1.3 SSE 2 7 1 4 1020.8 1020.7 0.0
26/08:30am 15.9 16.2 15.1 95 0.5 SSW 7 9 4 5 1020.8 1020.7 0.0
26/08:00am 13.9 13.8 13.4 97 0.3 SSW 6 9 3 5 1020.5 1020.4 0.0
26/07:30am 10.7 10.8 10.1 96 0.3 CALM 0 7 0 4 1020.3 1020.2 0.0
26/07:00am 8.9 8.5 8.1 95 0.4 CALM 0 0 0 0 1019.9 1019.8 0.0
26/06:30am 8.5 7.9 7.6 94 0.4 CALM 0 0 0 0 1019.4 1019.3 0.0
26/06:00am 8.4 7.8 7.5 94 0.4 CALM 0 0 0 0 1019.0 1018.9 0.0
26/05:30am 8.4 7.8 7.5 94 0.4 CALM 0 0 0 0 1018.8 1018.7 0.0
26/05:00am 8.6 8.1 7.7 94 0.4 CALM 0 0 0 0 1018.7 1018.6 0.0
26/04:30am 8.6 8.1 7.7 94 0.4 CALM 0 0 0 0 1018.7 1018.6 0.0
26/04:00am 8.9 8.4 8.0 94 0.4 CALM 0 0 0 0 1018.7 1018.6 0.0
26/03:30am 8.9 8.4 8.0 94 0.4 CALM 0 0 0 0 1018.7 1018.6 0.0
26/03:00am 9.1 8.7 8.2 94 0.4 CALM 0 0 0 0 1018.8 1018.7 0.0
26/02:56am 9.1 8.7 8.2 94 0.4 CALM 0 0 0 0 1018.7 1018.6 0.0
26/02:30am 9.1 8.7 8.2 94 0.4 CALM 0 0 0 0 1018.7 1018.6 0.0
26/02:00am 9.2 8.8 8.1 93 0.5 CALM 0 0 0 0 1018.8 1018.7 0.0
26/01:30am 9.4 9.0 8.3 93 0.5 CALM 0 0 0 0 1019.1 1019.0 0.0
26/01:00am 9.3 8.9 8.2 93 0.5 CALM 0 0 0 0 1019.2 1019.1 0.0
26/12:30am 9.7 9.4 8.6 93 0.5 CALM 0 0 0 0 1019.3 1019.2 0.0
26/12:00am 9.5 9.1 8.3 92 0.6 CALM 0 0 0 0 1019.3 1019.2 0.0
 
Date/Time
EST
Temp
°C
App
Temp
°C
Dew
Point
°C
Rel
Hum
%
Delta-T
°C
Wind Press
QNH
hPa
Press
MSL
hPa
Rain since
9am
mm
Dir  Spd
km/h
Gust
km/h
Spd
kts
Gust
kts
25/11:30pm 9.7 9.4 8.5 92 0.6 CALM 0 0 0 0 1019.4 1019.3 0.0
25/11:00pm 9.9 9.6 8.7 92 0.6 CALM 0 0 0 0 1019.6 1019.5 0.0
25/10:30pm 10.2 10.0 9.0 92 0.6 CALM 0 0 0 0 1019.8 1019.7 0.0
25/10:00pm 10.3 10.1 9.1 92 0.6 CALM 0 0 0 0 1019.7 1019.6 0.0
25/09:30pm 10.7 10.6 9.5 92 0.6 CALM 0 0 0 0 1019.7 1019.6 0.0
25/09:00pm 10.9 10.8 9.5 91 0.7 CALM 0 0 0 0 1019.5 1019.4 0.0
25/08:30pm 11.8 12.0 10.4 91 0.7 CALM 0 0 0 0 1019.4 1019.3 0.0
25/08:00pm 12.4 12.6 10.6 89 0.9 CALM 0 0 0 0 1019.2 1019.1 0.0
25/07:30pm 12.9 13.3 11.1 89 0.9 CALM 0 0 0 0 1018.8 1018.7 0.0
25/07:00pm 13.2 13.4 10.7 85 1.3 CALM 0 0 0 0 1018.5 1018.4 0.0
25/06:30pm 14.6 15.1 11.7 83 1.6 CALM 0 0 0 0 1018.2 1018.1 0.0
25/06:00pm 16.0 16.5 11.6 75 2.4 CALM 0 0 0 0 1017.9 1017.8 0.0
25/05:30pm 18.6 18.7 12.8 69 3.3 E 4 7 2 4 1017.7 1017.6 0.0
25/05:00pm 20.6 19.7 12.6 60 4.5 E 9 13 5 7 1017.5 1017.4 0.0
25/04:30pm 21.7 20.1 11.4 52 5.7 ENE 11 17 6 9 1017.4 1017.3 0.0
25/04:00pm 23.1 21.4 11.2 47 6.6 E 11 17 6 9 1017.4 1017.3 0.0
25/03:30pm 23.7 21.4 10.4 43 7.3 E 13 19 7 10 1017.2 1017.1 0.0
25/03:00pm 24.4 21.8 9.2 38 8.2 SE 13 17 7 9 1017.1 1017.0 0.0
25/02:30pm 24.5 22.0 9.6 39 8.1 SE 13 19 7 10 1017.0 1016.9 0.0
25/02:00pm 24.8 21.9 8.3 35 8.8 SE 13 19 7 10 1017.1 1017.0 0.0
25/01:30pm 25.3 22.7 7.9 33 9.3 ESE 11 19 6 10 1017.2 1017.1 0.0
25/01:00pm 25.0 22.9 8.1 34 9.0 ESE 9 17 5 9 1017.4 1017.3 0.0
25/12:30pm 24.9 23.2 8.4 35 8.9 SSW 7 13 4 7 1017.6 1017.5 0.0
25/12:00pm 24.3 22.3 8.7 37 8.4 ESE 9 17 5 9 1018.2 1018.1 0.0
25/11:30am 23.8 22.4 10.8 44 7.2 SE 9 15 5 8 1018.5 1018.4 0.0
25/11:00am 23.4 22.4 12.4 50 6.3 SSE 9 17 5 9 1019.0 1018.9 0.0
25/10:30am 22.5 21.2 12.4 52 5.7 SSE 11 15 6 8 1019.2 1019.1 0.0
25/10:00am 21.6 20.9 13.2 59 4.8 SSE 9 15 5 8 1019.5 1019.4 0.0
25/09:30am 19.4 18.3 11.9 62 4.2 S 9 13 5 7 1019.6 1019.5 0.0
25/09:00am 17.6 18.6 13.3 76 2.4 CALM 0 0 0 0 1019.3 1019.2 0.0
25/08:30am 14.7 15.3 12.0 84 1.5 CALM 0 6 0 3 1019.3 1019.2 0.0
25/08:00am 12.0 12.3 10.9 93 0.6 CALM 0 0 0 0 1018.8 1018.7 0.0
25/07:30am 9.4 9.1 8.6 95 0.4 CALM 0 0 0 0 1019.0 1018.9 0.0
25/07:00am 7.6 6.9 6.9 95 0.3 CALM 0 0 0 0 1018.6 1018.5 0.0
25/06:30am 7.0 6.1 6.1 94 0.4 CALM 0 0 0 0 1018.2 1018.1 0.0
25/06:00am 7.4 6.6 6.5 94 0.4 CALM 0 0 0 0 1017.9 1017.8 0.0
25/05:30am 7.3 6.5 6.4 94 0.4 CALM 0 0 0 0 1017.6 1017.5 0.0
25/05:00am 7.6 6.8 6.7 94 0.4 CALM 0 0 0 0 1017.5 1017.4 0.0
25/04:30am 7.5 6.7 6.6 94 0.4 CALM 0 0 0 0 1017.4 1017.3 0.0
25/04:00am 7.9 7.2 7.0 94 0.4 CALM 0 0 0 0 1017.6 1017.5 0.0
25/03:30am 8.0 7.3 7.1 94 0.4 CALM 0 0 0 0 1017.8 1017.7 0.0
25/03:00am 8.2 7.6 7.3 94 0.4 CALM 0 0 0 0 1017.7 1017.6 0.0
25/02:30am 8.4 7.8 7.5 94 0.4 CALM 0 0 0 0 1018.0 1017.9 0.0
25/02:00am 8.4 7.8 7.3 93 0.5 CALM 0 0 0 0 1018.2 1018.1 0.0
25/01:30am 8.2 7.5 7.1 93 0.5 CALM 0 0 0 0 1018.3 1018.2 0.0
25/01:00am 8.7 8.1 7.6 93 0.5 CALM 0 0 0 0 1018.4 1018.3 0.0
25/12:30am 8.9 8.4 7.8 93 0.5 CALM 0 0 0 0 1018.4 1018.3 0.0
25/12:00am 9.1 8.6 7.9 92 0.6 CALM 0 0 0 0 1018.6 1018.5 0.0
 
Date/Time
EST
Temp
°C
App
Temp
°C
Dew
Point
°C
Rel
Hum
%
Delta-T
°C
Wind Press
QNH
hPa
Press
MSL
hPa
Rain since
9am
mm
Dir  Spd
km/h
Gust
km/h
Spd
kts
Gust
kts
24/11:30pm 9.4 9.0 8.2 92 0.6 CALM 0 0 0 0 1018.5 1018.4 0.0
24/11:00pm 9.7 9.4 8.5 92 0.6 CALM 0 0 0 0 1018.6 1018.5 0.0
24/10:30pm 10.1 9.8 8.7 91 0.7 CALM 0 0 0 0 1018.8 1018.7 0.0
24/10:00pm 10.0 9.7 8.6 91 0.7 CALM 0 0 0 0 1018.8 1018.7 0.0
24/09:30pm 10.5 10.3 9.1 91 0.7 CALM 0 0 0 0 1018.9 1018.8 0.0
24/09:00pm 10.9 10.8 9.3 90 0.8 CALM 0 0 0 0 1018.8 1018.7 0.0
24/08:30pm 11.4 11.4 9.8 90 0.8 CALM 0 0 0 0 1018.7 1018.6 0.0
24/08:00pm 11.5 11.4 9.6 88 1.0 CALM 0 0 0 0 1018.3 1018.2 0.0
24/07:30pm 12.1 12.1 9.8 86 1.2 CALM 0 0 0 0 1018.1 1018.0 0.0
24/07:00pm 13.1 13.2 10.1 82 1.5 CALM 0 0 0 0 1017.8 1017.7 0.0
24/06:30pm 14.3 14.1 10.5 78 2.0 WNW 2 7 1 4 1017.5 1017.4 0.0
24/06:00pm 16.0 14.8 9.7 66 3.3 WNW 6 7 3 4 1017.3 1017.2 0.0
24/05:30pm 18.9 17.5 9.4 54 5.0 E 7 9 4 5 1017.0 1016.9 0.0
24/05:00pm 21.2 19.2 8.5 44 6.7 E 9 13 5 7 1016.8 1016.7 0.0
24/04:30pm 22.6 20.5 8.3 40 7.6 ENE 9 15 5 8 1016.5 1016.4 0.0
24/04:00pm 23.5 20.4 7.2 35 8.5 ENE 13 17 7 9 1016.3 1016.2 0.0
24/03:30pm 24.0 20.8 6.7 33 9.0 ENE 13 19 7 10 1016.3 1016.2 0.0
24/03:00pm 24.7 21.6 7.4 33 9.1 E 13 19 7 10 1016.3 1016.2 0.0
24/02:30pm 24.9 23.5 7.1 32 9.3 SE 4 11 2 6 1016.3 1016.2 0.0
24/02:00pm 24.7 22.1 7.8 34 8.9 SSW 11 22 6 12 1016.5 1016.4 0.0

Other Formats:

Comma delimited format used in spreadsheet applications
http://www.bom.gov.au/fwo/IDQ60801/IDQ60801.94370.axf

JavaScript Object Notation format (JSON) in row-major order
http://www.bom.gov.au/fwo/IDQ60801/IDQ60801.94370.json